EXS46F EGNM-LEGE
Flight info
| Callsign | EXS46F |
|---|---|
| Flight time | 1h 57m |
| Altitude | 35000 |
| Route | POL2X POL MCT LISTO P18 STAFA L8 HON UN859 SOPIL BALAN EVPOK NARAK GAI PPG A27 KANIG KANI1D |
| Aircraft | B733/M-V/N |
Departure
| Time | 2026-04-24 10:03 |
|---|---|
| Airport | Leeds Bradford Airport (EGNM) |
Arrival
| Time | 2026-04-24 12:00 |
|---|---|
| Airport | Girona-Costa Brava Airport (LEGE) |
| Time | Latitude | Longitude | Altitude | Speed | Heading |
|---|---|---|---|---|---|
| 2026-04-24 09:40 | 53.86860 | -1.65971 | 692 ft | 0 kts | 0° |
| 2026-04-24 09:54 | 53.86857 | -1.65971 | 692 ft | 1 kts | 0° |
| 2026-04-24 09:54 | 53.86839 | -1.65970 | 692 ft | 3 kts | 351° |
| 2026-04-24 09:55 | 53.86821 | -1.65960 | 692 ft | 3 kts | 326° |
| 2026-04-24 09:55 | 53.86810 | -1.65938 | 692 ft | 2 kts | 277° |
| 2026-04-24 09:55 | 53.86810 | -1.65924 | 692 ft | 1 kts | 271° |
| 2026-04-24 09:55 | 53.86810 | -1.65923 | 692 ft | 0 kts | 271° |
| 2026-04-24 09:57 | 53.86810 | -1.65924 | 692 ft | 0 kts | 271° |
| 2026-04-24 09:57 | 53.86810 | -1.65936 | 692 ft | 1 kts | 271° |
| 2026-04-24 09:58 | 53.86810 | -1.65961 | 692 ft | 5 kts | 271° |
| 2026-04-24 09:58 | 53.86805 | -1.66044 | 692 ft | 8 kts | 238° |
| 2026-04-24 09:58 | 53.86751 | -1.66085 | 692 ft | 9 kts | 223° |
| 2026-04-24 09:58 | 53.86726 | -1.66198 | 692 ft | 10 kts | 233° |
| 2026-04-24 09:59 | 53.86663 | -1.66177 | 692 ft | 11 kts | 138° |
| 2026-04-24 09:59 | 53.86599 | -1.66079 | 692 ft | 13 kts | 136° |
| 2026-04-24 09:59 | 53.86521 | -1.65955 | 692 ft | 18 kts | 138° |
| 2026-04-24 09:59 | 53.86419 | -1.65796 | 692 ft | 22 kts | 138° |
| 2026-04-24 10:00 | 53.86294 | -1.65603 | 692 ft | 26 kts | 136° |
| 2026-04-24 10:00 | 53.86151 | -1.65381 | 692 ft | 29 kts | 138° |
| 2026-04-24 10:00 | 53.85999 | -1.65146 | 692 ft | 30 kts | 138° |
| 2026-04-24 10:00 | 53.85909 | -1.64961 | 692 ft | 9 kts | 104° |
| 2026-04-24 10:01 | 53.85878 | -1.64907 | 692 ft | 4 kts | 207° |
| 2026-04-24 10:01 | 53.85879 | -1.64962 | 692 ft | 6 kts | 308° |
| 2026-04-24 10:01 | 53.85909 | -1.65014 | 692 ft | 7 kts | 316° |
| 2026-04-24 10:01 | 53.85951 | -1.65079 | 692 ft | 9 kts | 320° |
| 2026-04-24 10:02 | 53.86024 | -1.65187 | 692 ft | 29 kts | 317° |
| 2026-04-24 10:02 | 53.86348 | -1.65687 | 692 ft | 95 kts | 320° |
| 2026-04-24 10:02 | 53.86994 | -1.66690 | 694 ft | 155 kts | 318° |
| 2026-04-24 10:02 | 53.87862 | -1.68062 | 935 ft | 183 kts | 319° |
| 2026-04-24 10:03 | 53.88801 | -1.69679 | 1298 ft | 205 kts | 313° |
| 2026-04-24 10:03 | 53.89684 | -1.71773 | 1495 ft | 234 kts | 294° |
| 2026-04-24 10:03 | 53.89877 | -1.74465 | 2186 ft | 235 kts | 268° |
| 2026-04-24 10:03 | 53.89516 | -1.77181 | 2716 ft | 246 kts | 248° |
| 2026-04-24 10:04 | 53.88699 | -1.79864 | 3073 ft | 260 kts | 239° |
| 2026-04-24 10:04 | 53.87801 | -1.82498 | 3846 ft | 259 kts | 240° |
| 2026-04-24 10:04 | 53.86899 | -1.85160 | 4544 ft | 260 kts | 236° |
| 2026-04-24 10:04 | 53.85790 | -1.87554 | 5203 ft | 260 kts | 229° |
| 2026-04-24 10:05 | 53.84853 | -1.90186 | 5751 ft | 264 kts | 253° |
| 2026-04-24 10:05 | 53.84814 | -1.93245 | 6441 ft | 260 kts | 278° |
| 2026-04-24 10:05 | 53.85197 | -1.96256 | 6978 ft | 265 kts | 281° |
| 2026-04-24 10:05 | 53.85512 | -1.99333 | 7571 ft | 266 kts | 277° |
| 2026-04-24 10:06 | 53.85696 | -2.02470 | 8129 ft | 268 kts | 274° |
| 2026-04-24 10:06 | 53.85786 | -2.08846 | 9124 ft | 276 kts | 258° |
| 2026-04-24 10:06 | 53.84902 | -2.11681 | 9596 ft | 276 kts | 227° |
| 2026-04-24 10:07 | 53.83281 | -2.13486 | 9823 ft | 291 kts | 201° |
| 2026-04-24 10:07 | 53.81240 | -2.14188 | 9938 ft | 310 kts | 184° |
| 2026-04-24 10:07 | 53.79041 | -2.13721 | 10073 ft | 326 kts | 165° |
| 2026-04-24 10:07 | 53.76914 | -2.12410 | 10664 ft | 329 kts | 158° |
| 2026-04-24 10:08 | 53.74743 | -2.11187 | 11179 ft | 332 kts | 170° |
| 2026-04-24 10:08 | 53.72437 | -2.11080 | 11786 ft | 332 kts | 185° |
| 2026-04-24 10:08 | 53.70121 | -2.11765 | 12302 ft | 335 kts | 193° |
| 2026-04-24 10:08 | 53.67900 | -2.12769 | 12861 ft | 336 kts | 196° |
| 2026-04-24 10:09 | 53.65633 | -2.13846 | 13389 ft | 339 kts | 195° |
| 2026-04-24 10:09 | 53.63357 | -2.14874 | 13929 ft | 341 kts | 195° |
| 2026-04-24 10:09 | 53.61050 | -2.15857 | 14476 ft | 342 kts | 194° |
| 2026-04-24 10:09 | 53.58734 | -2.16813 | 15041 ft | 342 kts | 194° |
| 2026-04-24 10:10 | 53.56425 | -2.17757 | 15581 ft | 342 kts | 194° |
| 2026-04-24 10:10 | 53.54116 | -2.18702 | 16089 ft | 343 kts | 193° |
| 2026-04-24 10:10 | 53.51780 | -2.19660 | 16531 ft | 345 kts | 193° |
| 2026-04-24 10:10 | 53.49452 | -2.20613 | 16969 ft | 347 kts | 193° |
| 2026-04-24 10:11 | 53.47090 | -2.21578 | 17420 ft | 349 kts | 193° |
| 2026-04-24 10:11 | 53.44719 | -2.22547 | 17857 ft | 350 kts | 192° |
| 2026-04-24 10:11 | 53.42355 | -2.23514 | 18286 ft | 352 kts | 192° |
| 2026-04-24 10:11 | 53.39965 | -2.24490 | 18694 ft | 354 kts | 192° |
| 2026-04-24 10:12 | 53.37562 | -2.25470 | 19111 ft | 355 kts | 192° |
| 2026-04-24 10:12 | 53.35112 | -2.26015 | 19447 ft | 356 kts | 179° |
| 2026-04-24 10:12 | 53.32673 | -2.25665 | 19881 ft | 356 kts | 171° |
| 2026-04-24 10:12 | 53.31018 | -2.25173 | 20146 ft | 357 kts | 168° |
| 2026-04-24 10:13 | 53.27805 | -2.24040 | 20717 ft | 358 kts | 167° |
| 2026-04-24 10:13 | 53.25353 | -2.23202 | 21127 ft | 359 kts | 168° |
| 2026-04-24 10:13 | 53.22931 | -2.22434 | 21537 ft | 361 kts | 168° |
| 2026-04-24 10:13 | 53.20398 | -2.21674 | 21938 ft | 363 kts | 168° |
| 2026-04-24 10:14 | 53.17914 | -2.20947 | 22343 ft | 364 kts | 168° |
| 2026-04-24 10:14 | 53.15402 | -2.20216 | 22737 ft | 366 kts | 169° |
| 2026-04-24 10:14 | 53.12900 | -2.19893 | 23136 ft | 368 kts | 179° |
| 2026-04-24 10:14 | 53.10293 | -2.20183 | 23512 ft | 372 kts | 183° |
| 2026-04-24 10:15 | 53.07733 | -2.20697 | 23866 ft | 374 kts | 184° |
| 2026-04-24 10:15 | 53.05162 | -2.21235 | 24236 ft | 375 kts | 184° |
| 2026-04-24 10:15 | 53.03437 | -2.21569 | 24459 ft | 377 kts | 184° |
| 2026-04-24 10:15 | 52.99937 | -2.22171 | 24923 ft | 379 kts | 183° |
| 2026-04-24 10:16 | 52.97314 | -2.22583 | 25270 ft | 381 kts | 182° |
| 2026-04-24 10:16 | 52.94658 | -2.22987 | 25583 ft | 384 kts | 182° |
| 2026-04-24 10:16 | 52.91984 | -2.23393 | 25911 ft | 386 kts | 182° |
| 2026-04-24 10:16 | 52.89321 | -2.23758 | 26241 ft | 387 kts | 179° |
| 2026-04-24 10:17 | 52.86639 | -2.23258 | 26422 ft | 386 kts | 162° |
| 2026-04-24 10:17 | 52.84148 | -2.21621 | 26796 ft | 385 kts | 154° |
| 2026-04-24 10:17 | 52.81759 | -2.19598 | 27090 ft | 386 kts | 151° |
| 2026-04-24 10:17 | 52.79368 | -2.17511 | 27374 ft | 388 kts | 152° |
| 2026-04-24 10:18 | 52.76982 | -2.15524 | 27633 ft | 390 kts | 153° |
| 2026-04-24 10:18 | 52.74529 | -2.13590 | 27874 ft | 391 kts | 154° |
| 2026-04-24 10:18 | 52.72270 | -2.11871 | 28100 ft | 392 kts | 154° |
| 2026-04-24 10:18 | 52.69769 | -2.09998 | 28292 ft | 394 kts | 154° |
| 2026-04-24 10:19 | 52.67279 | -2.08143 | 28488 ft | 396 kts | 154° |
| 2026-04-24 10:19 | 52.64766 | -2.06268 | 28680 ft | 397 kts | 154° |
| 2026-04-24 10:19 | 52.62236 | -2.04376 | 28842 ft | 399 kts | 154° |
| 2026-04-24 10:19 | 52.59728 | -2.02500 | 28993 ft | 400 kts | 154° |
| 2026-04-24 10:20 | 52.57196 | -2.00606 | 29158 ft | 401 kts | 154° |
| 2026-04-24 10:20 | 52.54663 | -1.98714 | 29318 ft | 401 kts | 154° |
| 2026-04-24 10:20 | 52.52105 | -1.96805 | 29457 ft | 402 kts | 154° |
| 2026-04-24 10:20 | 52.49560 | -1.94908 | 29584 ft | 403 kts | 154° |
| 2026-04-24 10:21 | 52.47000 | -1.93002 | 29709 ft | 404 kts | 154° |
| 2026-04-24 10:21 | 52.41866 | -1.89188 | 29920 ft | 407 kts | 154° |
| 2026-04-24 10:21 | 52.39375 | -1.87342 | 30031 ft | 407 kts | 154° |
| 2026-04-24 10:22 | 52.36774 | -1.85417 | 30140 ft | 408 kts | 154° |
| 2026-04-24 10:22 | 52.34179 | -1.83498 | 30243 ft | 409 kts | 154° |
| 2026-04-24 10:22 | 52.31583 | -1.81582 | 30328 ft | 410 kts | 154° |
| 2026-04-24 10:23 | 52.26368 | -1.77738 | 30514 ft | 412 kts | 154° |
| 2026-04-24 10:23 | 52.21156 | -1.73906 | 30706 ft | 413 kts | 154° |
| 2026-04-24 10:23 | 52.18521 | -1.71973 | 30909 ft | 411 kts | 154° |
| 2026-04-24 10:24 | 52.15936 | -1.70080 | 31028 ft | 411 kts | 154° |
| 2026-04-24 10:24 | 52.13331 | -1.68174 | 31146 ft | 411 kts | 154° |
| 2026-04-24 10:24 | 52.11576 | -1.66891 | 31216 ft | 411 kts | 154° |
| 2026-04-24 10:25 | 52.06348 | -1.63075 | 31416 ft | 412 kts | 154° |
| 2026-04-24 10:25 | 52.03763 | -1.61193 | 31526 ft | 411 kts | 154° |
| 2026-04-24 10:25 | 52.01214 | -1.59339 | 31633 ft | 411 kts | 154° |
| 2026-04-24 10:25 | 51.97709 | -1.56794 | 31741 ft | 412 kts | 154° |
| 2026-04-24 10:26 | 51.95092 | -1.54895 | 31797 ft | 413 kts | 154° |
| 2026-04-24 10:26 | 51.90734 | -1.51739 | 31933 ft | 414 kts | 154° |
| 2026-04-24 10:27 | 51.85453 | -1.47925 | 32113 ft | 415 kts | 154° |
| 2026-04-24 10:27 | 51.81933 | -1.45388 | 32224 ft | 415 kts | 154° |
| 2026-04-24 10:27 | 51.80171 | -1.44120 | 32283 ft | 415 kts | 154° |
| 2026-04-24 10:28 | 51.74034 | -1.39711 | 32460 ft | 416 kts | 154° |
| 2026-04-24 10:28 | 51.69596 | -1.36530 | 32574 ft | 417 kts | 155° |
| 2026-04-24 10:29 | 51.64287 | -1.32736 | 32736 ft | 417 kts | 155° |
| 2026-04-24 10:29 | 51.58972 | -1.28946 | 32859 ft | 418 kts | 155° |
| 2026-04-24 10:30 | 51.53644 | -1.25156 | 32980 ft | 419 kts | 155° |
| 2026-04-24 10:30 | 51.48325 | -1.21382 | 33097 ft | 420 kts | 155° |
| 2026-04-24 10:31 | 51.42984 | -1.17470 | 33223 ft | 421 kts | 154° |
| 2026-04-24 10:31 | 51.37663 | -1.13518 | 33327 ft | 422 kts | 154° |
| 2026-04-24 10:32 | 51.32341 | -1.09598 | 33418 ft | 424 kts | 154° |
| 2026-04-24 10:32 | 51.26961 | -1.05662 | 33523 ft | 425 kts | 154° |
| 2026-04-24 10:33 | 51.21588 | -1.01742 | 33616 ft | 426 kts | 154° |
| 2026-04-24 10:33 | 51.16180 | -0.97806 | 33717 ft | 427 kts | 154° |
| 2026-04-24 10:34 | 51.10769 | -0.93876 | 33813 ft | 427 kts | 154° |
| 2026-04-24 10:34 | 51.05349 | -0.89951 | 33895 ft | 429 kts | 154° |
| 2026-04-24 10:35 | 50.99947 | -0.86049 | 33987 ft | 429 kts | 154° |
| 2026-04-24 10:35 | 50.94489 | -0.82116 | 34075 ft | 430 kts | 154° |
| 2026-04-24 10:36 | 50.89029 | -0.78192 | 34164 ft | 431 kts | 154° |
| 2026-04-24 10:36 | 50.84132 | -0.73016 | 34076 ft | 428 kts | 125° |
| 2026-04-24 10:36 | 50.82793 | -0.68830 | 34136 ft | 423 kts | 104° |
| 2026-04-24 10:37 | 50.82505 | -0.64219 | 34137 ft | 420 kts | 83° |
| 2026-04-24 10:37 | 50.83272 | -0.59876 | 34138 ft | 419 kts | 63° |
| 2026-04-24 10:37 | 50.84928 | -0.56103 | 34227 ft | 417 kts | 52° |
| 2026-04-24 10:37 | 50.86412 | -0.52151 | 34123 ft | 419 kts | 71° |
| 2026-04-24 10:38 | 50.86874 | -0.47632 | 34136 ft | 418 kts | 92° |
| 2026-04-24 10:38 | 50.86258 | -0.43150 | 34131 ft | 418 kts | 113° |
| 2026-04-24 10:38 | 50.84647 | -0.39335 | 34133 ft | 420 kts | 134° |
| 2026-04-24 10:38 | 50.82283 | -0.36717 | 34129 ft | 422 kts | 155° |
| 2026-04-24 10:39 | 50.79420 | -0.35475 | 34210 ft | 423 kts | 170° |
| 2026-04-24 10:39 | 50.73539 | -0.34640 | 34194 ft | 429 kts | 175° |
| 2026-04-24 10:40 | 50.67616 | -0.34204 | 34477 ft | 424 kts | 176° |
| 2026-04-24 10:40 | 50.61652 | -0.33813 | 34466 ft | 428 kts | 176° |
| 2026-04-24 10:41 | 50.55692 | -0.33429 | 34467 ft | 432 kts | 176° |
| 2026-04-24 10:41 | 50.49676 | -0.33011 | 34470 ft | 434 kts | 175° |
| 2026-04-24 10:42 | 50.43725 | -0.31364 | 34492 ft | 434 kts | 162° |
| 2026-04-24 10:42 | 50.38063 | -0.28107 | 34571 ft | 434 kts | 156° |
| 2026-04-24 10:43 | 50.32546 | -0.24384 | 34691 ft | 434 kts | 155° |
| 2026-04-24 10:43 | 50.26947 | -0.20675 | 34774 ft | 434 kts | 156° |
| 2026-04-24 10:44 | 50.21364 | -0.17092 | 34859 ft | 434 kts | 156° |
| 2026-04-24 10:44 | 50.15798 | -0.13556 | 34955 ft | 434 kts | 157° |
| 2026-04-24 10:45 | 50.10204 | -0.10007 | 35020 ft | 435 kts | 157° |
| 2026-04-24 10:45 | 50.04603 | -0.06456 | 35114 ft | 434 kts | 157° |
| 2026-04-24 10:46 | 49.99006 | -0.02914 | 35176 ft | 435 kts | 156° |
| 2026-04-24 10:46 | 49.93379 | 0.00636 | 35165 ft | 437 kts | 157° |
| 2026-04-24 10:47 | 49.87758 | 0.04176 | 35317 ft | 435 kts | 157° |
| 2026-04-24 10:47 | 49.82162 | 0.07686 | 35510 ft | 431 kts | 157° |
| 2026-04-24 10:48 | 49.76641 | 0.11143 | 35636 ft | 430 kts | 158° |
| 2026-04-24 10:48 | 49.71054 | 0.14634 | 35640 ft | 431 kts | 158° |
| 2026-04-24 10:49 | 49.65462 | 0.17802 | 35671 ft | 431 kts | 163° |
| 2026-04-24 10:49 | 49.59644 | 0.20066 | 35700 ft | 431 kts | 166° |
| 2026-04-24 10:50 | 49.53803 | 0.22220 | 35749 ft | 431 kts | 166° |
| 2026-04-24 10:50 | 49.47974 | 0.24501 | 35759 ft | 432 kts | 165° |
| 2026-04-24 10:51 | 49.42157 | 0.26838 | 35786 ft | 432 kts | 165° |
| 2026-04-24 10:51 | 49.36324 | 0.29178 | 35800 ft | 433 kts | 165° |
| 2026-04-24 10:52 | 49.31464 | 0.31117 | 35805 ft | 434 kts | 165° |
| 2026-04-24 10:52 | 49.24694 | 0.33913 | 35843 ft | 434 kts | 164° |
| 2026-04-24 10:53 | 49.18834 | 0.36416 | 35853 ft | 434 kts | 164° |
| 2026-04-24 10:53 | 49.13049 | 0.38865 | 35875 ft | 435 kts | 165° |
| 2026-04-24 10:54 | 49.07206 | 0.41316 | 35882 ft | 435 kts | 165° |
| 2026-04-24 10:54 | 49.01346 | 0.43763 | 35883 ft | 436 kts | 165° |
| 2026-04-24 10:55 | 48.95487 | 0.46206 | 35885 ft | 437 kts | 165° |
| 2026-04-24 10:55 | 48.89641 | 0.48638 | 35906 ft | 438 kts | 165° |
| 2026-04-24 10:56 | 48.83721 | 0.51096 | 35916 ft | 438 kts | 165° |
| 2026-04-24 10:56 | 48.77862 | 0.53520 | 35923 ft | 439 kts | 165° |
| 2026-04-24 10:57 | 48.71952 | 0.55859 | 35946 ft | 439 kts | 166° |
| 2026-04-24 10:57 | 48.66023 | 0.58153 | 35967 ft | 440 kts | 166° |
| 2026-04-24 10:58 | 48.60100 | 0.60453 | 35982 ft | 440 kts | 166° |
| 2026-04-24 10:58 | 48.54197 | 0.62754 | 35991 ft | 441 kts | 166° |
| 2026-04-24 10:59 | 48.48244 | 0.65103 | 36011 ft | 441 kts | 166° |
| 2026-04-24 10:59 | 48.42311 | 0.67534 | 36028 ft | 441 kts | 166° |
| 2026-04-24 11:00 | 48.36421 | 0.69945 | 36054 ft | 442 kts | 166° |
| 2026-04-24 11:00 | 48.30476 | 0.72357 | 36084 ft | 442 kts | 166° |
| 2026-04-24 11:01 | 48.24546 | 0.74749 | 36116 ft | 441 kts | 166° |
| 2026-04-24 11:01 | 48.18600 | 0.77104 | 36144 ft | 441 kts | 166° |
| 2026-04-24 11:02 | 48.12660 | 0.79426 | 36171 ft | 441 kts | 166° |
| 2026-04-24 11:02 | 48.06703 | 0.81757 | 36201 ft | 441 kts | 166° |
| 2026-04-24 11:03 | 48.00800 | 0.84067 | 36226 ft | 441 kts | 166° |
| 2026-04-24 11:03 | 47.94854 | 0.86391 | 36231 ft | 442 kts | 167° |
| 2026-04-24 11:04 | 47.88913 | 0.88703 | 36234 ft | 442 kts | 167° |
| 2026-04-24 11:04 | 47.82936 | 0.91024 | 36236 ft | 443 kts | 167° |
| 2026-04-24 11:05 | 47.77003 | 0.93325 | 36238 ft | 444 kts | 167° |
| 2026-04-24 11:05 | 47.71014 | 0.95640 | 36249 ft | 444 kts | 167° |
| 2026-04-24 11:06 | 47.66038 | 0.97560 | 36268 ft | 444 kts | 167° |
| 2026-04-24 11:06 | 47.59054 | 1.00248 | 36304 ft | 444 kts | 167° |
| 2026-04-24 11:07 | 47.51059 | 1.03317 | 36343 ft | 444 kts | 167° |
| 2026-04-24 11:07 | 47.44103 | 1.05973 | 36366 ft | 443 kts | 168° |
| 2026-04-24 11:08 | 47.38004 | 1.06835 | 36372 ft | 439 kts | 182° |
| 2026-04-24 11:08 | 47.32937 | 1.06537 | 36371 ft | 439 kts | 185° |
| 2026-04-24 11:09 | 47.25784 | 1.06064 | 36385 ft | 440 kts | 184° |
| 2026-04-24 11:09 | 47.19698 | 1.05865 | 36402 ft | 440 kts | 183° |
| 2026-04-24 11:10 | 47.13576 | 1.05740 | 36412 ft | 440 kts | 183° |
| 2026-04-24 11:10 | 47.07426 | 1.05612 | 36431 ft | 440 kts | 183° |
| 2026-04-24 11:11 | 47.01335 | 1.05472 | 36445 ft | 440 kts | 183° |
| 2026-04-24 11:11 | 46.95171 | 1.05225 | 36455 ft | 440 kts | 184° |
| 2026-04-24 11:12 | 46.89075 | 1.04934 | 36473 ft | 440 kts | 184° |
| 2026-04-24 11:12 | 46.82949 | 1.04658 | 36486 ft | 441 kts | 184° |
| 2026-04-24 11:13 | 46.77848 | 1.04441 | 36500 ft | 441 kts | 184° |
| 2026-04-24 11:13 | 46.71722 | 1.04182 | 36516 ft | 441 kts | 184° |
| 2026-04-24 11:14 | 46.65591 | 1.03924 | 36528 ft | 441 kts | 184° |
| 2026-04-24 11:14 | 46.59428 | 1.03663 | 36544 ft | 441 kts | 184° |
| 2026-04-24 11:15 | 46.53327 | 1.03406 | 36558 ft | 441 kts | 184° |
| 2026-04-24 11:15 | 46.46205 | 1.04635 | 36629 ft | 444 kts | 169° |
| 2026-04-24 11:16 | 46.40207 | 1.06902 | 36633 ft | 445 kts | 167° |
| 2026-04-24 11:16 | 46.35217 | 1.08776 | 36633 ft | 445 kts | 168° |
| 2026-04-24 11:17 | 46.29178 | 1.10861 | 36635 ft | 446 kts | 169° |
| 2026-04-24 11:17 | 46.23125 | 1.12858 | 36637 ft | 446 kts | 170° |
| 2026-04-24 11:18 | 46.17085 | 1.14843 | 36639 ft | 446 kts | 170° |
| 2026-04-24 11:18 | 46.11027 | 1.16843 | 36641 ft | 447 kts | 170° |
| 2026-04-24 11:19 | 46.04996 | 1.18835 | 36643 ft | 447 kts | 170° |
| 2026-04-24 11:19 | 45.98938 | 1.20832 | 36665 ft | 447 kts | 171° |
| 2026-04-24 11:20 | 45.92876 | 1.22827 | 36667 ft | 447 kts | 171° |
| 2026-04-24 11:20 | 45.86802 | 1.24817 | 36668 ft | 448 kts | 171° |
| 2026-04-24 11:21 | 45.80721 | 1.26805 | 36673 ft | 448 kts | 171° |
| 2026-04-24 11:21 | 45.74639 | 1.28790 | 36704 ft | 448 kts | 171° |
| 2026-04-24 11:22 | 45.68569 | 1.30768 | 36712 ft | 448 kts | 171° |
| 2026-04-24 11:22 | 45.62481 | 1.32746 | 36722 ft | 448 kts | 171° |
| 2026-04-24 11:23 | 45.56410 | 1.34714 | 36738 ft | 448 kts | 171° |
| 2026-04-24 11:23 | 45.50328 | 1.36682 | 36744 ft | 448 kts | 171° |
| 2026-04-24 11:24 | 45.44254 | 1.38643 | 36760 ft | 448 kts | 171° |
| 2026-04-24 11:24 | 45.38206 | 1.40591 | 36777 ft | 448 kts | 171° |
| 2026-04-24 11:25 | 45.32120 | 1.42548 | 36804 ft | 448 kts | 171° |
| 2026-04-24 11:25 | 45.26053 | 1.44493 | 36818 ft | 448 kts | 171° |
| 2026-04-24 11:26 | 45.19963 | 1.46442 | 36830 ft | 448 kts | 171° |
| 2026-04-24 11:26 | 45.13888 | 1.48382 | 36837 ft | 448 kts | 171° |
| 2026-04-24 11:27 | 45.07779 | 1.50328 | 36860 ft | 448 kts | 171° |
| 2026-04-24 11:27 | 45.01700 | 1.52260 | 36872 ft | 448 kts | 172° |
| 2026-04-24 11:28 | 44.95608 | 1.54192 | 36885 ft | 448 kts | 172° |
| 2026-04-24 11:28 | 44.89569 | 1.56104 | 36908 ft | 448 kts | 172° |
| 2026-04-24 11:29 | 44.83486 | 1.58026 | 36917 ft | 448 kts | 172° |
| 2026-04-24 11:29 | 44.77401 | 1.59943 | 36926 ft | 448 kts | 172° |
| 2026-04-24 11:30 | 44.71316 | 1.61856 | 36939 ft | 448 kts | 172° |
| 2026-04-24 11:30 | 44.65243 | 1.63762 | 36966 ft | 448 kts | 172° |
| 2026-04-24 11:31 | 44.59149 | 1.65670 | 36972 ft | 448 kts | 172° |
| 2026-04-24 11:31 | 44.53070 | 1.67569 | 37001 ft | 447 kts | 172° |
| 2026-04-24 11:32 | 44.47042 | 1.69449 | 37017 ft | 447 kts | 173° |
| 2026-04-24 11:32 | 44.40960 | 1.71341 | 37042 ft | 447 kts | 173° |
| 2026-04-24 11:33 | 44.34880 | 1.73229 | 37052 ft | 447 kts | 173° |
| 2026-04-24 11:33 | 44.28822 | 1.75100 | 37054 ft | 446 kts | 173° |
| 2026-04-24 11:34 | 44.22724 | 1.76573 | 37067 ft | 444 kts | 177° |
| 2026-04-24 11:34 | 44.16640 | 1.77803 | 37093 ft | 443 kts | 177° |
| 2026-04-24 11:35 | 44.10534 | 1.79083 | 37114 ft | 443 kts | 176° |
| 2026-04-24 11:35 | 44.04448 | 1.80417 | 37143 ft | 443 kts | 176° |
| 2026-04-24 11:36 | 43.98367 | 1.81762 | 37145 ft | 443 kts | 176° |
| 2026-04-24 11:36 | 43.95383 | 1.82757 | 37225 ft | 447 kts | 165° |
| 2026-04-24 11:36 | 43.92538 | 1.84498 | 37353 ft | 449 kts | 157° |
| 2026-04-24 11:37 | 43.87210 | 1.89130 | 37347 ft | 454 kts | 149° |
| 2026-04-24 11:37 | 43.82008 | 1.94117 | 37345 ft | 454 kts | 150° |
| 2026-04-24 11:38 | 43.76745 | 1.98940 | 37346 ft | 453 kts | 152° |
| 2026-04-24 11:38 | 43.71416 | 2.03639 | 37347 ft | 453 kts | 152° |
| 2026-04-24 11:39 | 43.66122 | 2.08260 | 37349 ft | 453 kts | 152° |
| 2026-04-24 11:39 | 43.60789 | 2.12918 | 37350 ft | 453 kts | 152° |
| 2026-04-24 11:40 | 43.55459 | 2.17577 | 37351 ft | 453 kts | 152° |
| 2026-04-24 11:40 | 43.50129 | 2.22230 | 37350 ft | 454 kts | 152° |
| 2026-04-24 11:41 | 43.44793 | 2.26877 | 37352 ft | 454 kts | 152° |
| 2026-04-24 11:41 | 43.39756 | 2.31252 | 37353 ft | 454 kts | 152° |
| 2026-04-24 11:42 | 43.34411 | 2.35887 | 37353 ft | 454 kts | 152° |
| 2026-04-24 11:42 | 43.29100 | 2.40481 | 37353 ft | 454 kts | 153° |
| 2026-04-24 11:43 | 43.23741 | 2.45108 | 37355 ft | 455 kts | 153° |
| 2026-04-24 11:43 | 43.18389 | 2.49720 | 37356 ft | 455 kts | 153° |
| 2026-04-24 11:44 | 43.13025 | 2.54332 | 37354 ft | 455 kts | 153° |
| 2026-04-24 11:44 | 43.10365 | 2.56619 | 36930 ft | 448 kts | 153° |
| 2026-04-24 11:44 | 43.07708 | 2.58897 | 35789 ft | 456 kts | 153° |
| 2026-04-24 11:45 | 43.05022 | 2.61198 | 35493 ft | 450 kts | 154° |
| 2026-04-24 11:45 | 43.02381 | 2.63463 | 34599 ft | 451 kts | 154° |
| 2026-04-24 11:45 | 42.99660 | 2.65780 | 33115 ft | 467 kts | 154° |
| 2026-04-24 11:45 | 42.96868 | 2.68148 | 31630 ft | 479 kts | 154° |
| 2026-04-24 11:46 | 42.93996 | 2.70586 | 30133 ft | 489 kts | 154° |
| 2026-04-24 11:46 | 42.91125 | 2.73028 | 28659 ft | 496 kts | 154° |
| 2026-04-24 11:46 | 42.88187 | 2.75530 | 27166 ft | 501 kts | 153° |
| 2026-04-24 11:46 | 42.85226 | 2.78051 | 25671 ft | 504 kts | 153° |
| 2026-04-24 11:47 | 42.82237 | 2.80596 | 24167 ft | 505 kts | 153° |
| 2026-04-24 11:47 | 42.79272 | 2.83120 | 22556 ft | 489 kts | 153° |
| 2026-04-24 11:47 | 42.76483 | 2.85505 | 21039 ft | 461 kts | 153° |
| 2026-04-24 11:47 | 42.73787 | 2.87577 | 19536 ft | 432 kts | 161° |
| 2026-04-24 11:48 | 42.71046 | 2.88976 | 18052 ft | 408 kts | 168° |
| 2026-04-24 11:48 | 42.68382 | 2.90005 | 16794 ft | 384 kts | 171° |
| 2026-04-24 11:48 | 42.65899 | 2.90885 | 16413 ft | 362 kts | 171° |
| 2026-04-24 11:48 | 42.63483 | 2.91772 | 15799 ft | 360 kts | 169° |
| 2026-04-24 11:49 | 42.61091 | 2.92715 | 15119 ft | 361 kts | 168° |
| 2026-04-24 11:49 | 42.58704 | 2.93714 | 14510 ft | 358 kts | 167° |
| 2026-04-24 11:49 | 42.56334 | 2.94735 | 13927 ft | 354 kts | 166° |
| 2026-04-24 11:49 | 42.54003 | 2.95745 | 13355 ft | 350 kts | 166° |
| 2026-04-24 11:50 | 42.51656 | 2.96758 | 12793 ft | 346 kts | 166° |
| 2026-04-24 11:50 | 42.49402 | 2.97687 | 12245 ft | 341 kts | 169° |
| 2026-04-24 11:50 | 42.47064 | 2.97867 | 11841 ft | 334 kts | 189° |
| 2026-04-24 11:50 | 42.44785 | 2.97303 | 11591 ft | 333 kts | 197° |
| 2026-04-24 11:51 | 42.42553 | 2.96414 | 11146 ft | 334 kts | 201° |
| 2026-04-24 11:51 | 42.40361 | 2.95451 | 10623 ft | 329 kts | 201° |
| 2026-04-24 11:51 | 42.38193 | 2.94531 | 10250 ft | 319 kts | 200° |
| 2026-04-24 11:51 | 42.36134 | 2.93706 | 10208 ft | 298 kts | 199° |
| 2026-04-24 11:52 | 42.34207 | 2.92962 | 10180 ft | 280 kts | 199° |
| 2026-04-24 11:52 | 42.32406 | 2.92271 | 10101 ft | 265 kts | 199° |
| 2026-04-24 11:52 | 42.30638 | 2.91590 | 10020 ft | 257 kts | 200° |
| 2026-04-24 11:52 | 42.28937 | 2.90930 | 9745 ft | 259 kts | 199° |
| 2026-04-24 11:53 | 42.27201 | 2.90255 | 9209 ft | 258 kts | 199° |
| 2026-04-24 11:53 | 42.25483 | 2.89592 | 8747 ft | 254 kts | 199° |
| 2026-04-24 11:53 | 42.23803 | 2.88946 | 8319 ft | 250 kts | 199° |
| 2026-04-24 11:53 | 42.22133 | 2.88307 | 7894 ft | 248 kts | 199° |
| 2026-04-24 11:54 | 42.20478 | 2.87671 | 7469 ft | 247 kts | 199° |
| 2026-04-24 11:54 | 42.18828 | 2.87037 | 7045 ft | 245 kts | 199° |
| 2026-04-24 11:54 | 42.17192 | 2.86409 | 6633 ft | 247 kts | 199° |
| 2026-04-24 11:54 | 42.16079 | 2.85980 | 6352 ft | 251 kts | 200° |
| 2026-04-24 11:55 | 42.13834 | 2.85117 | 5763 ft | 251 kts | 199° |
| 2026-04-24 11:55 | 42.12157 | 2.84476 | 5323 ft | 249 kts | 200° |
| 2026-04-24 11:55 | 42.10508 | 2.83833 | 4915 ft | 246 kts | 200° |
| 2026-04-24 11:55 | 42.08891 | 2.83190 | 4521 ft | 242 kts | 200° |
| 2026-04-24 11:56 | 42.07286 | 2.82561 | 4151 ft | 239 kts | 199° |
| 2026-04-24 11:56 | 42.05667 | 2.81955 | 3789 ft | 241 kts | 199° |
| 2026-04-24 11:56 | 42.04048 | 2.81347 | 3413 ft | 243 kts | 199° |
| 2026-04-24 11:56 | 42.02434 | 2.80733 | 3113 ft | 238 kts | 199° |
| 2026-04-24 11:57 | 42.00892 | 2.80151 | 2791 ft | 220 kts | 199° |
| 2026-04-24 11:57 | 41.99498 | 2.79621 | 2439 ft | 194 kts | 199° |
| 2026-04-24 11:57 | 41.98274 | 2.79159 | 2124 ft | 169 kts | 198° |
| 2026-04-24 11:57 | 41.97206 | 2.78742 | 1615 ft | 159 kts | 199° |
| 2026-04-24 11:58 | 41.96239 | 2.78310 | 1393 ft | 134 kts | 198° |
| 2026-04-24 11:58 | 41.95375 | 2.77960 | 1172 ft | 130 kts | 193° |
| 2026-04-24 11:58 | 41.94786 | 2.77774 | 1068 ft | 133 kts | 192° |
| 2026-04-24 11:58 | 41.93584 | 2.77362 | 885 ft | 132 kts | 193° |
| 2026-04-24 11:59 | 41.92689 | 2.77017 | 687 ft | 133 kts | 194° |
| 2026-04-24 11:59 | 41.91791 | 2.76695 | 526 ft | 134 kts | 194° |
| 2026-04-24 11:59 | 41.91208 | 2.76464 | 479 ft | 123 kts | 193° |
| 2026-04-24 11:59 | 41.90531 | 2.76219 | 479 ft | 82 kts | 197° |
| 2026-04-24 12:00 | 41.90071 | 2.76046 | 479 ft | 55 kts | 194° |
| 2026-04-24 12:00 | 41.89763 | 2.75934 | 479 ft | 26 kts | 198° |
| 2026-04-24 12:00 | 41.89603 | 2.75871 | 479 ft | 15 kts | 194° |
| 2026-04-24 12:00 | 41.89542 | 2.75862 | 479 ft | 12 kts | 168° |
| 2026-04-24 12:01 | 41.89497 | 2.75912 | 479 ft | 1 kts | 67° |
| 2026-04-24 12:01 | 41.89499 | 2.75916 | 479 ft | 1 kts | 65° |
| 2026-04-24 12:01 | 41.89509 | 2.75945 | 479 ft | 8 kts | 65° |
| 2026-04-24 12:01 | 41.89547 | 2.76016 | 479 ft | 10 kts | 53° |
| 2026-04-24 12:02 | 41.89589 | 2.76084 | 479 ft | 9 kts | 39° |
| 2026-04-24 12:02 | 41.89643 | 2.76114 | 479 ft | 8 kts | 16° |
| 2026-04-24 12:02 | 41.89699 | 2.76136 | 479 ft | 8 kts | 16° |
| 2026-04-24 12:02 | 41.89755 | 2.76158 | 479 ft | 8 kts | 16° |
| 2026-04-24 12:03 | 41.89812 | 2.76178 | 479 ft | 8 kts | 16° |
| 2026-04-24 12:03 | 41.89867 | 2.76200 | 479 ft | 8 kts | 17° |
| 2026-04-24 12:03 | 41.89906 | 2.76234 | 479 ft | 5 kts | 80° |
| 2026-04-24 12:03 | 41.89901 | 2.76275 | 479 ft | 4 kts | 105° |
| 2026-04-24 12:04 | 41.89893 | 2.76314 | 479 ft | 5 kts | 105° |
| 2026-04-24 12:04 | 41.89881 | 2.76359 | 479 ft | 6 kts | 112° |
| 2026-04-24 12:04 | 41.89860 | 2.76428 | 479 ft | 6 kts | 107° |
| 2026-04-24 12:04 | 41.89852 | 2.76466 | 479 ft | 5 kts | 106° |
| 2026-04-24 12:05 | 41.89850 | 2.76474 | 479 ft | 0 kts | 106° |